createdAt,value
2019-02-07T00:00:22.811Z,48.77
2019-02-07T00:02:51.204Z,54.80
2019-02-07T00:05:19.683Z,53.90
2019-02-07T00:07:48.319Z,50.43
2019-02-07T00:10:19.440Z,50.80
2019-02-07T00:12:48.503Z,54.67
2019-02-07T00:15:17.792Z,55.87
2019-02-07T00:17:46.487Z,59.70
2019-02-07T00:20:16.938Z,49.70
2019-02-07T00:22:45.449Z,47.73
2019-02-07T00:25:14.129Z,47.10
2019-02-07T00:27:42.661Z,47.50
2019-02-07T00:30:14.563Z,45.60
2019-02-07T00:32:43.203Z,49.27
2019-02-07T00:35:12.283Z,55.30
2019-02-07T00:37:41.018Z,55.40
2019-02-07T00:40:12.198Z,43.80
2019-02-07T00:42:41.038Z,50.60
2019-02-07T00:45:12.647Z,51.40
2019-02-07T00:47:41.173Z,38.40
2019-02-07T00:50:15.122Z,50.23
2019-02-07T00:52:43.659Z,44.70
2019-02-07T00:55:14.495Z,46.73
2019-02-07T00:57:43.255Z,47.07
2019-02-07T01:00:21.056Z,47.30
2019-02-07T01:02:49.873Z,48.83
2019-02-07T01:05:19.470Z,51.90
2019-02-07T01:07:48.284Z,46.80
2019-02-07T01:10:26.323Z,42.13
2019-02-07T01:12:54.756Z,45.80
2019-02-07T01:15:23.989Z,49.90
2019-02-07T01:17:52.635Z,42.20
2019-02-07T01:20:21.119Z,47.40
2019-02-07T01:22:49.835Z,53.00
2019-02-07T01:25:20.816Z,46.83
2019-02-07T01:27:49.777Z,43.57
2019-02-07T01:30:20.969Z,43.17
2019-02-07T01:32:49.490Z,46.10
2019-02-07T01:35:17.981Z,46.57
2019-02-07T01:37:46.477Z,44.60
2019-02-07T01:40:17.526Z,42.57
2019-02-07T01:42:46.369Z,41.23
2019-02-07T01:45:22.497Z,43.93
2019-02-07T01:47:52.082Z,52.03
2019-02-07T01:50:23.109Z,45.17
2019-02-07T01:52:52.495Z,39.90
2019-02-07T01:55:21.436Z,47.13
2019-02-07T01:57:49.978Z,41.93
2019-02-07T02:00:19.861Z,47.83
2019-02-07T02:02:48.664Z,49.23
2019-02-07T02:05:19.012Z,48.67
2019-02-07T02:07:49.992Z,49.57
2019-02-07T02:10:24.283Z,50.23
2019-02-07T02:12:52.994Z,45.53
2019-02-07T02:15:24.983Z,47.30
2019-02-07T02:17:52.753Z,44.40
2019-02-07T02:20:24.299Z,49.50
2019-02-07T02:22:54.466Z,47.87
2019-02-07T02:25:23.158Z,47.97
2019-02-07T02:27:51.624Z,57.23
2019-02-07T02:30:34.541Z,40.93
2019-02-07T02:33:03.851Z,51.07
2019-02-07T02:35:32.305Z,38.40
2019-02-07T02:38:00.974Z,46.33
2019-02-07T02:40:29.396Z,49.40
2019-02-07T02:42:58.183Z,42.53
2019-02-07T02:45:37.117Z,45.83
2019-02-07T02:47:57.173Z,41.40
2019-02-07T02:50:25.977Z,42.37
2019-02-07T02:52:54.671Z,42.03
2019-02-07T02:55:30.597Z,48.90
2019-02-07T02:57:59.110Z,42.63
2019-02-07T03:00:47.191Z,43.43
2019-02-07T03:03:26.331Z,41.87
2019-02-07T03:05:56.433Z,43.63
2019-02-07T03:08:42.750Z,40.20
2019-02-07T03:11:24.779Z,41.73
2019-02-07T03:14:03.378Z,50.07
2019-02-07T03:16:51.400Z,45.23
2019-02-07T03:19:36.714Z,48.47
2019-02-07T03:22:07.246Z,43.87
2019-02-07T03:24:53.457Z,34.23
2019-02-07T03:27:39.493Z,34.97
2019-02-07T03:30:31.476Z,43.20
2019-02-07T03:33:10.790Z,42.83
2019-02-07T03:35:46.924Z,43.50
2019-02-07T03:38:29.030Z,42.97
2019-02-07T03:40:59.120Z,51.60
2019-02-07T03:43:29.390Z,48.00
2019-02-07T03:46:08.271Z,42.20
2019-02-07T03:48:50.481Z,44.93
2019-02-07T03:51:23.284Z,45.23
2019-02-07T03:54:08.398Z,46.50
2019-02-07T03:56:44.661Z,46.47
2019-02-07T03:59:23.785Z,48.10
2019-02-07T04:01:54.129Z,48.90
2019-02-07T04:04:39.361Z,38.27
2019-02-07T04:07:25.401Z,38.80
2019-02-07T04:10:11.852Z,46.67
2019-02-07T04:12:42.874Z,46.33
2019-02-07T04:15:29.682Z,41.57
2019-02-07T04:18:03.102Z,51.77
2019-02-07T04:20:35.865Z,39.33
2019-02-07T04:23:06.252Z,38.83
2019-02-07T04:25:52.876Z,44.87
2019-02-07T04:28:26.112Z,41.07
2019-02-07T04:30:59.136Z,45.23
2019-02-07T04:33:44.011Z,47.33
2019-02-07T04:36:20.114Z,43.47
2019-02-07T04:38:53.181Z,45.33
2019-02-07T04:41:29.359Z,44.60
2019-02-07T04:44:03.348Z,38.03
2019-02-07T04:46:33.757Z,45.37
2019-02-07T04:49:04.191Z,43.70
2019-02-07T04:51:43.449Z,44.83
2019-02-07T04:54:28.823Z,42.07
2019-02-07T04:57:07.989Z,38.77
2019-02-07T04:59:40.996Z,37.93
2019-02-07T05:02:16.914Z,40.90
2019-02-07T05:05:05.073Z,42.83
2019-02-07T05:07:53.298Z,42.43
2019-02-07T05:10:29.836Z,43.60
2019-02-07T05:13:02.824Z,42.90
2019-02-07T05:15:36.273Z,45.40
2019-02-07T05:18:18.212Z,44.13
2019-02-07T05:20:54.269Z,39.50
2019-02-07T05:23:35.832Z,44.03
2019-02-07T05:26:21.788Z,44.07
2019-02-07T05:29:06.902Z,37.03
2019-02-07T05:31:39.644Z,49.40
2019-02-07T05:34:09.685Z,43.37
2019-02-07T05:36:42.326Z,44.60
2019-02-07T05:39:11.996Z,45.57
2019-02-07T05:41:42.275Z,42.37
2019-02-07T05:44:24.478Z,37.10
2019-02-07T05:46:57.726Z,44.43
2019-02-07T05:49:40.058Z,44.43
2019-02-07T05:52:10.319Z,43.77
2019-02-07T05:54:48.841Z,45.43
2019-02-07T05:57:21.553Z,40.23
2019-02-07T05:59:57.421Z,46.13
2019-02-07T06:02:27.801Z,46.40
2019-02-07T06:05:00.728Z,41.97
2019-02-07T06:07:33.766Z,44.87
2019-02-07T06:10:04.501Z,43.17
2019-02-07T06:12:50.558Z,45.93
2019-02-07T06:15:29.554Z,44.43
2019-02-07T06:18:00.142Z,45.50
2019-02-07T06:20:41.946Z,45.50
2019-02-07T06:23:27.756Z,45.40
2019-02-07T06:26:14.342Z,47.23
2019-02-07T06:28:50.560Z,45.00
2019-02-07T06:31:32.414Z,44.33
2019-02-07T06:34:08.760Z,45.03
2019-02-07T06:36:47.735Z,49.67
2019-02-07T06:39:23.685Z,40.97
2019-02-07T06:41:56.427Z,50.53
2019-02-07T06:44:29.975Z,44.20
2019-02-07T06:47:00.021Z,44.77
2019-02-07T06:49:30.557Z,53.37
2019-02-07T06:52:15.446Z,39.80
2019-02-07T06:54:57.877Z,48.13
2019-02-07T06:57:33.890Z,44.70
2019-02-07T07:00:14.305Z,44.57
2019-02-07T07:02:47.738Z,46.27
2019-02-07T07:05:17.773Z,49.57
2019-02-07T07:08:06.353Z,41.20
2019-02-07T07:10:37.219Z,43.23
2019-02-07T07:13:07.429Z,48.40
2019-02-07T07:15:55.310Z,45.60
2019-02-07T07:18:31.435Z,47.43
2019-02-07T07:21:16.448Z,48.50
2019-02-07T07:24:02.679Z,42.10
2019-02-07T07:26:41.533Z,46.27
2019-02-07T07:29:11.856Z,45.13
2019-02-07T07:31:58.016Z,43.37
2019-02-07T07:34:44.047Z,50.50
2019-02-07T07:37:20.620Z,47.00
2019-02-07T07:39:53.644Z,44.17
2019-02-07T07:42:23.905Z,47.10
2019-02-07T07:44:57.544Z,44.60
2019-02-07T07:47:36.022Z,44.20
2019-02-07T07:50:11.272Z,45.33
2019-02-07T07:52:41.541Z,48.30
2019-02-07T07:55:11.983Z,48.43
2019-02-07T07:57:49.021Z,47.17
2019-02-07T08:00:28.287Z,51.30
2019-02-07T08:02:59.470Z,44.57
2019-02-07T08:05:35.694Z,49.20
2019-02-07T08:08:15.044Z,53.50
2019-02-07T08:10:47.805Z,45.50
2019-02-07T08:13:18.070Z,49.27
2019-02-07T08:15:48.412Z,52.60
2019-02-07T08:18:27.454Z,47.70
2019-02-07T08:20:57.568Z,57.83
2019-02-07T08:23:27.873Z,50.40
2019-02-07T08:26:09.873Z,44.10
2019-02-07T08:28:58.059Z,45.47
2019-02-07T08:31:34.608Z,39.80
2019-02-07T08:34:07.092Z,50.40
2019-02-07T08:36:54.755Z,48.97
2019-02-07T08:39:39.998Z,48.33
2019-02-07T08:42:26.429Z,48.23
2019-02-07T08:44:59.752Z,44.60
2019-02-07T08:47:39.165Z,50.53
2019-02-07T08:50:12.295Z,51.70
2019-02-07T08:52:45.075Z,42.80
2019-02-07T08:55:30.246Z,47.23
2019-02-07T08:58:16.613Z,53.97
2019-02-07T09:00:49.073Z,59.53
2019-02-07T09:03:19.408Z,51.40
2019-02-07T09:05:50.510Z,56.90
2019-02-07T09:08:35.667Z,51.53
2019-02-07T09:11:06.041Z,47.67
2019-02-07T09:13:53.903Z,48.77
2019-02-07T09:16:41.848Z,49.57
2019-02-07T09:19:11.882Z,50.60
2019-02-07T09:21:45.061Z,46.70
2019-02-07T09:24:15.543Z,62.17
2019-02-07T09:26:45.824Z,46.80
2019-02-07T09:29:21.771Z,54.13
2019-02-07T09:32:00.879Z,51.97
2019-02-07T09:34:30.948Z,49.07
2019-02-07T09:37:16.189Z,62.93
2019-02-07T09:40:01.158Z,49.90
2019-02-07T09:42:31.180Z,48.43
2019-02-07T09:45:03.886Z,49.00
2019-02-07T09:47:34.195Z,53.00
2019-02-07T09:50:04.283Z,46.60
2019-02-07T09:52:40.881Z,52.47
2019-02-07T09:55:24.394Z,48.77
2019-02-07T09:58:01.217Z,52.03
2019-02-07T10:00:37.447Z,45.43
2019-02-07T10:03:24.005Z,52.53
2019-02-07T10:06:10.348Z,57.53
2019-02-07T10:08:57.105Z,47.93
2019-02-07T10:11:27.399Z,45.43
2019-02-07T10:13:57.745Z,45.83
2019-02-07T10:16:30.949Z,56.57
2019-02-07T10:19:01.611Z,50.03
2019-02-07T10:21:40.842Z,52.93
2019-02-07T10:24:19.599Z,50.40
2019-02-07T10:26:55.631Z,49.17
2019-02-07T10:29:35.102Z,61.93
2019-02-07T10:32:08.097Z,52.50
2019-02-07T10:34:54.682Z,52.57
2019-02-07T10:37:41.216Z,52.77
2019-02-07T10:40:14.842Z,48.90
2019-02-07T10:42:57.033Z,52.97
2019-02-07T10:45:33.282Z,54.83
2019-02-07T10:48:06.105Z,51.20
2019-02-07T10:50:42.182Z,47.40
2019-02-07T10:53:27.374Z,51.20
2019-02-07T10:56:09.149Z,50.10
2019-02-07T10:58:44.901Z,48.60
2019-02-07T11:01:15.165Z,47.77
2019-02-07T11:03:45.781Z,50.07
2019-02-07T11:06:16.285Z,57.20
2019-02-07T11:08:55.091Z,53.33
2019-02-07T11:11:25.200Z,53.40
2019-02-07T11:13:57.948Z,54.20
2019-02-07T11:16:44.373Z,51.13
2019-02-07T11:19:21.378Z,53.67
2019-02-07T11:21:52.429Z,50.17
2019-02-07T11:24:23.051Z,56.17
2019-02-07T11:27:07.945Z,58.17
2019-02-07T11:29:54.259Z,58.10
2019-02-07T11:32:30.345Z,49.63
2019-02-07T11:35:03.142Z,55.60
2019-02-07T11:37:49.720Z,53.67
2019-02-07T11:40:38.123Z,51.37
2019-02-07T11:43:24.691Z,57.20
2019-02-07T11:45:57.783Z,50.93
2019-02-07T11:48:28.334Z,58.37
2019-02-07T11:51:13.807Z,53.70
2019-02-07T11:53:46.623Z,65.43
2019-02-07T11:56:16.663Z,52.53
2019-02-07T11:59:03.296Z,54.13
2019-02-07T12:01:36.526Z,51.60
2019-02-07T12:04:26.094Z,51.77
2019-02-07T12:07:05.013Z,47.17
2019-02-07T12:09:53.397Z,56.67
2019-02-07T12:12:26.809Z,53.43
2019-02-07T12:15:05.428Z,65.90
2019-02-07T12:17:38.161Z,59.90
2019-02-07T12:20:11.713Z,59.63
2019-02-07T12:22:46.395Z,58.27
2019-02-07T12:25:22.195Z,61.03
2019-02-07T12:27:52.499Z,49.70
2019-02-07T12:30:25.764Z,59.20
2019-02-07T12:33:13.981Z,55.70
2019-02-07T12:35:45.190Z,52.73
2019-02-07T12:38:23.813Z,58.47
2019-02-07T12:40:54.147Z,52.90
2019-02-07T12:43:24.432Z,52.23
2019-02-07T12:46:10.009Z,51.30
2019-02-07T12:48:43.064Z,58.33
2019-02-07T12:51:25.492Z,61.83
2019-02-07T12:53:58.753Z,51.20
2019-02-07T12:56:38.242Z,53.27
2019-02-07T12:59:24.418Z,64.23
2019-02-07T13:02:00.557Z,55.37
2019-02-07T13:04:36.442Z,60.13
2019-02-07T13:07:07.674Z,60.83
2019-02-07T13:09:38.107Z,55.90
2019-02-07T13:12:26.300Z,56.87
2019-02-07T13:15:05.560Z,55.13
2019-02-07T13:17:41.612Z,52.00
2019-02-07T13:20:20.959Z,56.50
2019-02-07T13:22:57.367Z,59.30
2019-02-07T13:25:35.889Z,57.90
2019-02-07T13:28:12.183Z,57.37
2019-02-07T13:30:54.709Z,56.93
2019-02-07T13:33:41.036Z,56.17
2019-02-07T13:36:11.243Z,56.03
2019-02-07T13:38:57.436Z,52.90
2019-02-07T13:41:27.712Z,59.07
2019-02-07T13:43:57.999Z,51.33
2019-02-07T13:46:42.843Z,52.30
2019-02-07T13:49:27.760Z,52.30
2019-02-07T13:51:57.837Z,55.37
2019-02-07T13:54:37.166Z,53.10
2019-02-07T13:57:07.561Z,48.80
2019-02-07T13:59:56.037Z,52.97
2019-02-07T14:02:42.330Z,56.20
2019-02-07T14:05:29.008Z,52.77
2019-02-07T14:08:16.623Z,52.47
2019-02-07T14:10:49.555Z,45.63
2019-02-07T14:13:37.800Z,55.63
2019-02-07T14:16:24.302Z,49.17
2019-02-07T14:19:06.523Z,55.90
2019-02-07T14:21:45.696Z,49.53
2019-02-07T14:24:21.683Z,49.70
2019-02-07T14:27:00.730Z,47.70
2019-02-07T14:29:45.839Z,54.03
2019-02-07T14:32:24.553Z,52.03
2019-02-07T14:34:57.702Z,53.50
2019-02-07T14:37:33.528Z,50.80
2019-02-07T14:40:03.577Z,60.93
2019-02-07T14:42:36.568Z,57.13
2019-02-07T14:45:12.852Z,57.77
2019-02-07T14:47:41.493Z,60.07
2019-02-07T14:50:14.880Z,64.13
2019-02-07T14:52:40.976Z,59.50
2019-02-07T14:55:10.080Z,59.93
2019-02-07T14:57:39.176Z,67.80
2019-02-07T15:00:16.477Z,56.43
2019-02-07T15:02:45.266Z,56.10
2019-02-07T15:05:14.082Z,53.43
2019-02-07T15:07:42.772Z,55.80
2019-02-07T15:10:19.789Z,54.07
2019-02-07T15:12:48.667Z,63.23
2019-02-07T15:15:20.362Z,66.10
2019-02-07T15:17:49.358Z,63.27
2019-02-07T15:20:25.779Z,60.87
2019-02-07T15:22:48.685Z,55.00
2019-02-07T15:25:17.541Z,63.37
2019-02-07T15:27:46.077Z,48.73
2019-02-07T15:30:21.308Z,60.20
2019-02-07T15:32:50.075Z,58.77
2019-02-07T15:35:27.776Z,57.67
2019-02-07T15:37:56.934Z,61.30
2019-02-07T15:40:26.020Z,65.10
2019-02-07T15:42:56.345Z,64.40
2019-02-07T15:45:24.928Z,73.23
2019-02-07T15:47:53.323Z,60.93
2019-02-07T15:50:23.708Z,60.43
2019-02-07T15:52:54.450Z,68.07
2019-02-07T15:55:22.918Z,59.97
2019-02-07T15:57:51.791Z,55.93
2019-02-07T16:00:28.791Z,64.70
2019-02-07T16:02:59.007Z,62.23
2019-02-07T16:05:27.751Z,67.37
2019-02-07T16:07:56.205Z,58.33
2019-02-07T16:10:24.874Z,54.10
2019-02-07T16:12:53.266Z,50.63
2019-02-07T16:15:21.746Z,61.07
2019-02-07T16:17:50.206Z,63.73
2019-02-07T16:20:21.379Z,57.23
2019-02-07T16:22:50.049Z,62.80
2019-02-07T16:25:19.890Z,60.60
2019-02-07T16:27:48.609Z,71.40
2019-02-07T16:30:18.878Z,59.87
2019-02-07T16:32:47.556Z,63.37
2019-02-07T16:35:22.688Z,73.00
2019-02-07T16:37:51.598Z,60.90
2019-02-07T16:40:23.948Z,62.60
2019-02-07T16:42:52.862Z,73.57
2019-02-07T16:45:23.476Z,63.33
2019-02-07T16:47:52.230Z,65.33
2019-02-07T16:50:23.671Z,66.50
2019-02-07T16:52:52.360Z,59.17
2019-02-07T16:55:21.602Z,62.37
2019-02-07T16:57:50.299Z,69.50
2019-02-07T17:00:33.205Z,64.73
2019-02-07T17:03:02.090Z,57.80
2019-02-07T17:05:30.583Z,63.43
2019-02-07T17:07:59.348Z,67.10
2019-02-07T17:10:41.507Z,65.37
2019-02-07T17:13:13.086Z,76.20
2019-02-07T17:15:42.323Z,70.13
2019-02-07T17:18:10.787Z,56.23
2019-02-07T17:20:39.797Z,65.90
2019-02-07T17:23:08.291Z,65.97
2019-02-07T17:25:37.082Z,66.17
2019-02-07T17:28:05.721Z,55.63
2019-02-07T17:30:34.789Z,65.23
2019-02-07T17:33:03.553Z,69.67
2019-02-07T17:35:32.369Z,81.10
2019-02-07T17:38:01.074Z,77.47
2019-02-07T17:40:29.487Z,72.33
2019-02-07T17:42:58.107Z,71.60
2019-02-07T17:45:28.841Z,73.57
2019-02-07T17:47:57.496Z,70.40
2019-02-07T17:50:36.221Z,60.63
2019-02-07T17:53:07.095Z,61.70
2019-02-07T17:55:35.795Z,56.17
2019-02-07T17:58:05.937Z,65.33
2019-02-07T18:00:47.722Z,59.33
2019-02-07T18:03:16.130Z,63.90
2019-02-07T18:05:45.016Z,60.90
2019-02-07T18:08:13.557Z,60.07
2019-02-07T18:10:42.109Z,68.53
2019-02-07T18:13:10.712Z,65.70
2019-02-07T18:15:39.362Z,61.20
2019-02-07T18:18:07.907Z,63.03
2019-02-07T18:20:36.302Z,71.13
2019-02-07T18:23:05.190Z,59.90
2019-02-07T18:25:33.608Z,64.97
2019-02-07T18:28:02.382Z,60.60
2019-02-07T18:30:31.039Z,58.80
2019-02-07T18:32:59.713Z,55.27
2019-02-07T18:35:28.477Z,50.40
2019-02-07T18:37:57.573Z,39.23
2019-02-07T18:40:31.381Z,31.40
2019-02-07T18:43:00.875Z,30.90
2019-02-07T18:45:30.323Z,28.53
2019-02-07T18:47:58.994Z,28.10
2019-02-07T18:50:31.348Z,31.10
2019-02-07T18:53:01.206Z,24.20
2019-02-07T18:55:29.967Z,25.97
2019-02-07T18:57:59.031Z,26.03
2019-02-07T19:00:32.675Z,22.63
2019-02-07T19:03:01.403Z,24.77
2019-02-07T19:05:29.866Z,22.50
2019-02-07T19:07:58.515Z,31.37
2019-02-07T19:10:28.421Z,25.00
2019-02-07T19:12:57.352Z,23.13
2019-02-07T19:15:31.653Z,24.37
2019-02-07T19:18:00.193Z,26.40
2019-02-07T19:20:28.585Z,20.50
2019-02-07T19:22:57.229Z,26.97
2019-02-07T19:25:25.776Z,24.90
2019-02-07T19:27:54.511Z,25.23
2019-02-07T19:30:27.628Z,28.70
2019-02-07T19:32:56.844Z,26.50
2019-02-07T19:35:25.322Z,38.70
2019-02-07T19:37:54.116Z,32.30
2019-02-07T19:40:22.971Z,37.93
2019-02-07T19:42:51.462Z,31.17
2019-02-07T19:45:23.137Z,32.50
2019-02-07T19:47:51.627Z,29.33
2019-02-07T19:50:23.556Z,33.37
2019-02-07T19:52:52.308Z,32.80
2019-02-07T19:55:24.144Z,27.57
2019-02-07T19:57:53.011Z,28.07
2019-02-07T20:00:23.826Z,30.27
2019-02-07T20:02:52.670Z,25.70
2019-02-07T20:05:21.073Z,31.93
2019-02-07T20:07:49.729Z,28.13
2019-02-07T20:10:20.399Z,26.20
2019-02-07T20:12:48.890Z,29.97
2019-02-07T20:15:20.989Z,26.10
2019-02-07T20:17:49.481Z,22.53
2019-02-07T20:20:18.474Z,29.20
2019-02-07T20:22:48.469Z,23.83
2019-02-07T20:25:19.097Z,22.23
2019-02-07T20:27:47.802Z,21.67
2019-02-07T20:30:19.921Z,15.73
2019-02-07T20:32:48.348Z,18.97
2019-02-07T20:35:16.828Z,15.60
2019-02-07T20:37:45.553Z,16.17
2019-02-07T20:40:17.107Z,13.27
2019-02-07T20:42:46.302Z,14.17
2019-02-07T20:45:15.604Z,15.13
2019-02-07T20:47:44.528Z,10.17
2019-02-07T20:50:21.109Z,16.87
2019-02-07T20:52:50.877Z,24.53
2019-02-07T20:55:20.078Z,20.10
2019-02-07T20:57:48.859Z,22.80
2019-02-07T21:00:23.915Z,36.23
2019-02-07T21:02:52.637Z,37.93
2019-02-07T21:05:21.561Z,37.23
2019-02-07T21:07:50.594Z,33.53
2019-02-07T21:10:27.784Z,34.87
2019-02-07T21:12:57.089Z,37.53
2019-02-07T21:15:25.944Z,39.77
2019-02-07T21:17:54.342Z,37.37
2019-02-07T21:20:24.929Z,20.47
2019-02-07T21:22:54.354Z,19.00
2019-02-07T21:25:25.187Z,19.27
2019-02-07T21:27:53.912Z,15.87
2019-02-07T21:30:27.940Z,17.47
2019-02-07T21:32:57.051Z,13.70
2019-02-07T21:35:25.958Z,14.50
2019-02-07T21:37:54.673Z,10.00
2019-02-07T21:40:25.002Z,14.60
2019-02-07T21:42:55.529Z,16.90
2019-02-07T21:45:24.212Z,16.20
2019-02-07T21:47:53.038Z,14.50
2019-02-07T21:50:32.196Z,14.00
2019-02-07T21:53:00.669Z,17.03
2019-02-07T21:55:34.732Z,18.73
2019-02-07T21:58:03.649Z,15.27
2019-02-07T22:00:41.189Z,15.23
2019-02-07T22:03:11.113Z,12.83
2019-02-07T22:05:39.871Z,14.03
2019-02-07T22:08:09.011Z,17.50
2019-02-07T22:10:37.509Z,27.43
2019-02-07T22:13:06.733Z,19.00
2019-02-07T22:15:35.133Z,21.07
2019-02-07T22:18:05.126Z,23.93
2019-02-07T22:20:34.149Z,23.07
2019-02-07T22:23:02.763Z,22.07
2019-02-07T22:25:31.202Z,26.00
2019-02-07T22:27:59.848Z,21.20
2019-02-07T22:30:34.498Z,15.10
2019-02-07T22:33:03.162Z,26.30
2019-02-07T22:35:31.621Z,19.60
2019-02-07T22:38:00.593Z,19.97
2019-02-07T22:40:29.383Z,18.20
2019-02-07T22:43:00.123Z,25.93
2019-02-07T22:45:29.280Z,17.20
2019-02-07T22:47:57.752Z,13.97
2019-02-07T22:50:32.185Z,10.80
2019-02-07T22:53:01.406Z,10.77
2019-02-07T22:55:30.398Z,18.57
2019-02-07T22:57:59.317Z,16.60
2019-02-07T23:00:38.116Z,12.50
2019-02-07T23:03:20.242Z,17.30
2019-02-07T23:05:48.876Z,15.57
2019-02-07T23:08:17.507Z,15.97
2019-02-07T23:10:46.916Z,22.40
2019-02-07T23:13:15.563Z,11.20
2019-02-07T23:15:44.280Z,17.20
2019-02-07T23:18:12.737Z,15.07
2019-02-07T23:20:41.122Z,15.53
2019-02-07T23:23:10.867Z,16.30
2019-02-07T23:25:39.912Z,13.90
2019-02-07T23:28:08.988Z,10.83
2019-02-07T23:30:37.381Z,11.40
2019-02-07T23:33:06.483Z,14.47
2019-02-07T23:35:35.161Z,16.70
2019-02-07T23:38:04.659Z,13.43
2019-02-07T23:40:33.278Z,17.33
2019-02-07T23:43:01.746Z,14.50
2019-02-07T23:45:30.140Z,14.20
2019-02-07T23:47:58.538Z,16.67
2019-02-07T23:50:26.941Z,12.97
2019-02-07T23:52:55.566Z,18.80
2019-02-07T23:55:24.091Z,19.67
2019-02-07T23:57:52.718Z,9.83
